createdAt,value
2023-01-12T00:00:44.609Z,76.21
2023-01-12T00:03:20.528Z,76.54
2023-01-12T00:05:58.567Z,76.29
2023-01-12T00:08:33.339Z,77.03
2023-01-12T00:11:06.733Z,76.96
2023-01-12T00:13:42.799Z,76.71
2023-01-12T00:16:38.917Z,76.83
2023-01-12T00:19:15.663Z,77.86
2023-01-12T00:21:59.431Z,78.27
2023-01-12T00:24:40.306Z,77.43
2023-01-12T00:27:20.402Z,78.11
2023-01-12T00:29:58.665Z,77.70
2023-01-12T00:32:33.490Z,77.94
2023-01-12T00:35:07.784Z,78.20
2023-01-12T00:37:48.065Z,78.57
2023-01-12T00:40:21.151Z,78.20
2023-01-12T00:43:14.509Z,78.70
2023-01-12T00:45:50.653Z,78.49
2023-01-12T00:48:25.783Z,78.41
2023-01-12T00:50:58.853Z,78.38
2023-01-12T00:53:32.633Z,78.29
2023-01-12T00:56:06.876Z,78.52
2023-01-12T00:58:39.819Z,79.15
2023-01-12T01:01:15.623Z,78.35
2023-01-12T01:03:50.662Z,78.63
2023-01-12T01:06:23.865Z,78.55
2023-01-12T01:08:59.114Z,78.42
2023-01-12T01:11:31.994Z,78.59
2023-01-12T01:14:05.208Z,78.45
2023-01-12T01:16:38.346Z,79.27
2023-01-12T01:19:12.998Z,78.48
2023-01-12T01:21:45.890Z,79.33
2023-01-12T01:24:18.706Z,79.36
2023-01-12T01:26:52.125Z,77.99
2023-01-12T01:29:25.201Z,78.39
2023-01-12T01:31:58.736Z,79.15
2023-01-12T01:34:33.201Z,79.06
2023-01-12T01:37:06.073Z,78.52
2023-01-12T01:39:39.067Z,78.42
2023-01-12T01:42:27.849Z,78.80
2023-01-12T01:45:03.623Z,78.53
2023-01-12T01:47:41.242Z,78.38
2023-01-12T01:50:24.870Z,78.32
2023-01-12T01:53:01.300Z,78.30
2023-01-12T01:55:38.704Z,78.23
2023-01-12T01:58:16.166Z,78.58
2023-01-12T02:00:49.467Z,78.49
2023-01-12T02:03:22.652Z,78.53
2023-01-12T02:05:58.771Z,78.66
2023-01-12T02:08:36.220Z,78.83
2023-01-12T02:11:30.579Z,78.86
2023-01-12T02:14:21.407Z,78.75
2023-01-12T02:17:04.429Z,78.84
2023-01-12T02:20:10.374Z,79.09
2023-01-12T02:23:11.810Z,78.67
2023-01-12T02:26:21.922Z,79.50
2023-01-12T02:29:38.196Z,79.00
2023-01-12T02:32:21.446Z,78.88
2023-01-12T02:35:06.088Z,78.83
2023-01-12T02:37:46.832Z,78.82
2023-01-12T02:40:27.193Z,78.70
2023-01-12T02:43:08.690Z,78.85
2023-01-12T02:45:47.790Z,78.83
2023-01-12T02:48:27.125Z,78.62
2023-01-12T02:51:06.777Z,79.18
2023-01-12T02:53:47.607Z,79.59
2023-01-12T02:56:27.447Z,79.93
2023-01-12T02:59:05.029Z,79.97
2023-01-12T03:01:38.991Z,79.33
2023-01-12T03:04:15.703Z,79.53
2023-01-12T03:07:27.992Z,80.11
2023-01-12T03:10:16.239Z,79.90
2023-01-12T03:12:51.547Z,80.20
2023-01-12T03:15:28.976Z,80.46
2023-01-12T03:18:09.161Z,79.67
2023-01-12T03:20:50.118Z,80.80
2023-01-12T03:23:31.197Z,79.89
2023-01-12T03:26:09.290Z,80.90
2023-01-12T03:28:48.234Z,80.39
2023-01-12T03:31:23.144Z,80.26
2023-01-12T03:34:00.210Z,80.48
2023-01-12T03:36:44.785Z,79.84
2023-01-12T03:39:30.393Z,79.48
2023-01-12T03:42:11.183Z,80.18
2023-01-12T03:44:55.959Z,79.67
2023-01-12T03:47:32.182Z,79.84
2023-01-12T03:50:08.150Z,80.09
2023-01-12T03:52:49.050Z,79.86
2023-01-12T03:55:32.458Z,79.95
2023-01-12T03:58:06.807Z,79.73
2023-01-12T04:00:43.476Z,79.35
2023-01-12T04:03:20.394Z,80.73
2023-01-12T04:05:53.992Z,80.13
2023-01-12T04:08:28.753Z,81.64
2023-01-12T04:11:23.975Z,81.33
2023-01-12T04:13:56.916Z,80.76
2023-01-12T04:16:30.550Z,80.41
2023-01-12T04:19:04.040Z,80.40
2023-01-12T04:21:54.938Z,80.80
2023-01-12T04:24:29.711Z,80.69
2023-01-12T04:27:02.913Z,79.51
2023-01-12T04:29:38.842Z,79.24
2023-01-12T04:32:16.090Z,79.23
2023-01-12T04:34:53.762Z,79.69
2023-01-12T04:37:27.595Z,79.20
2023-01-12T04:40:02.804Z,79.04
2023-01-12T04:42:54.742Z,79.94
2023-01-12T04:45:27.864Z,80.06
2023-01-12T04:48:05.185Z,80.02
2023-01-12T04:50:41.162Z,80.03
2023-01-12T04:53:14.824Z,80.07
2023-01-12T04:55:49.728Z,79.65
2023-01-12T04:58:23.744Z,79.41
2023-01-12T05:00:56.907Z,79.98
2023-01-12T05:03:29.944Z,80.89
2023-01-12T05:06:02.917Z,80.51
2023-01-12T05:08:53.846Z,80.11
2023-01-12T05:11:29.338Z,80.52
2023-01-12T05:14:02.326Z,81.08
2023-01-12T05:16:35.148Z,80.53
2023-01-12T05:19:08.098Z,81.14
2023-01-12T05:21:40.915Z,80.80
2023-01-12T05:24:13.950Z,80.97
2023-01-12T05:26:51.170Z,80.14
2023-01-12T05:29:24.251Z,80.84
2023-01-12T05:31:57.390Z,81.12
2023-01-12T05:34:30.269Z,80.68
2023-01-12T05:37:03.175Z,79.97
2023-01-12T05:39:35.938Z,80.26
2023-01-12T05:42:27.978Z,80.15
2023-01-12T05:45:00.923Z,80.59
2023-01-12T05:47:33.820Z,80.00
2023-01-12T05:50:07.646Z,80.77
2023-01-12T05:52:40.651Z,80.80
2023-01-12T05:55:13.796Z,81.52
2023-01-12T05:57:48.414Z,80.42
2023-01-12T06:00:21.990Z,80.19
2023-01-12T06:02:55.104Z,81.08
2023-01-12T06:05:30.667Z,80.85
2023-01-12T06:08:03.587Z,80.60
2023-01-12T06:10:37.132Z,81.36
2023-01-12T06:13:28.986Z,80.79
2023-01-12T06:16:05.254Z,80.97
2023-01-12T06:18:40.360Z,80.37
2023-01-12T06:21:13.555Z,80.90
2023-01-12T06:23:46.525Z,80.46
2023-01-12T06:26:19.261Z,80.61
2023-01-12T06:28:53.733Z,79.70
2023-01-12T06:31:27.096Z,79.72
2023-01-12T06:34:00.377Z,80.40
2023-01-12T06:36:33.844Z,80.12
2023-01-12T06:39:13.825Z,79.88
2023-01-12T06:42:04.377Z,80.98
2023-01-12T06:44:44.985Z,80.97
2023-01-12T06:47:18.109Z,81.69
2023-01-12T06:49:56.308Z,82.04
2023-01-12T06:52:30.368Z,81.63
2023-01-12T06:55:03.583Z,82.19
2023-01-12T06:57:36.693Z,81.14
2023-01-12T07:00:13.116Z,81.53
2023-01-12T07:02:45.955Z,80.97
2023-01-12T07:05:18.996Z,80.75
2023-01-12T07:07:58.629Z,80.53
2023-01-12T07:10:32.613Z,80.66
2023-01-12T07:13:05.390Z,80.28
2023-01-12T07:15:39.618Z,80.23
2023-01-12T07:18:12.683Z,80.51
2023-01-12T07:20:45.868Z,81.21
2023-01-12T07:23:20.994Z,81.09
2023-01-12T07:25:53.807Z,81.38
2023-01-12T07:28:28.099Z,81.17
2023-01-12T07:31:41.094Z,80.74
2023-01-12T07:34:21.751Z,81.20
2023-01-12T07:37:16.365Z,81.41
2023-01-12T07:39:52.277Z,81.03
2023-01-12T07:42:26.713Z,80.76
2023-01-12T07:44:59.807Z,80.74
2023-01-12T07:47:39.041Z,81.12
2023-01-12T07:50:25.334Z,80.53
2023-01-12T07:53:08.235Z,80.58
2023-01-12T07:55:44.638Z,80.82
2023-01-12T07:58:17.908Z,81.17
2023-01-12T08:00:52.502Z,80.67
2023-01-12T08:03:27.397Z,80.92
2023-01-12T08:06:04.377Z,80.88
2023-01-12T08:08:37.950Z,81.42
2023-01-12T08:11:14.149Z,81.95
2023-01-12T08:13:47.315Z,81.61
2023-01-12T08:16:25.873Z,81.54
2023-01-12T08:19:06.631Z,81.02
2023-01-12T08:21:47.860Z,81.08
2023-01-12T08:24:25.895Z,81.35
2023-01-12T08:27:01.309Z,80.79
2023-01-12T08:29:42.029Z,80.57
2023-01-12T08:32:19.180Z,80.46
2023-01-12T08:35:00.335Z,80.82
2023-01-12T08:37:36.813Z,81.12
2023-01-12T08:40:11.665Z,81.24
2023-01-12T08:42:45.468Z,81.77
2023-01-12T08:45:21.615Z,81.56
2023-01-12T08:47:57.459Z,81.85
2023-01-12T08:50:31.853Z,81.62
2023-01-12T08:53:14.353Z,81.57
2023-01-12T08:55:56.081Z,80.94
2023-01-12T08:58:29.169Z,81.12
2023-01-12T09:01:08.776Z,81.73
2023-01-12T09:03:44.328Z,81.75
2023-01-12T09:06:23.891Z,82.45
2023-01-12T09:08:58.748Z,82.14
2023-01-12T09:11:32.970Z,81.80
2023-01-12T09:14:06.566Z,81.73
2023-01-12T09:16:39.960Z,81.43
2023-01-12T09:19:13.121Z,81.48
2023-01-12T09:21:47.096Z,81.07
2023-01-12T09:24:20.107Z,80.92
2023-01-12T09:26:52.813Z,81.01
2023-01-12T09:29:25.752Z,80.82
2023-01-12T09:31:58.644Z,81.28
2023-01-12T09:34:31.696Z,80.67
2023-01-12T09:37:05.651Z,81.05
2023-01-12T09:39:38.654Z,81.37
2023-01-12T09:42:36.131Z,81.27
2023-01-12T09:45:37.106Z,81.25
2023-01-12T09:48:13.079Z,81.35
2023-01-12T09:50:52.420Z,81.86
2023-01-12T09:53:31.195Z,81.96
2023-01-12T09:56:15.320Z,81.83
2023-01-12T09:59:16.540Z,81.46
2023-01-12T10:01:53.131Z,80.71
2023-01-12T10:04:26.544Z,80.62
2023-01-12T10:06:59.669Z,81.09
2023-01-12T10:09:34.807Z,81.16
2023-01-12T10:12:20.678Z,80.89
2023-01-12T10:15:16.507Z,81.19
2023-01-12T10:17:53.552Z,81.58
2023-01-12T10:20:33.357Z,81.67
2023-01-12T10:23:17.052Z,81.78
2023-01-12T10:25:59.582Z,81.44
2023-01-12T10:28:34.753Z,81.33
2023-01-12T10:31:10.224Z,80.84
2023-01-12T10:34:02.938Z,80.74
2023-01-12T10:36:38.176Z,81.00
2023-01-12T10:39:30.679Z,81.58
2023-01-12T10:42:39.109Z,80.82
2023-01-12T10:45:20.567Z,81.43
2023-01-12T10:47:54.272Z,81.27
2023-01-12T10:50:29.130Z,81.31
2023-01-12T10:53:05.840Z,81.17
2023-01-12T10:55:41.433Z,80.66
2023-01-12T10:58:22.831Z,80.66
2023-01-12T11:00:56.280Z,81.20
2023-01-12T11:03:33.970Z,80.66
2023-01-12T11:06:28.281Z,80.41
2023-01-12T11:09:18.607Z,80.98
2023-01-12T11:11:55.309Z,80.35
2023-01-12T11:14:32.512Z,80.45
2023-01-12T11:17:33.182Z,80.57
2023-01-12T11:20:16.279Z,80.70
2023-01-12T11:22:52.828Z,80.36
2023-01-12T11:25:28.941Z,80.53
2023-01-12T11:28:07.206Z,81.23
2023-01-12T11:30:45.945Z,80.56
2023-01-12T11:33:24.381Z,81.02
2023-01-12T11:36:04.107Z,81.00
2023-01-12T11:38:41.865Z,81.42
2023-01-12T11:41:23.081Z,81.63
2023-01-12T11:44:02.746Z,80.68
2023-01-12T11:46:46.590Z,80.79
2023-01-12T11:49:26.794Z,80.53
2023-01-12T11:52:05.422Z,80.98
2023-01-12T11:54:40.005Z,81.25
2023-01-12T11:57:47.890Z,80.75
2023-01-12T12:00:32.091Z,80.68
2023-01-12T12:03:27.190Z,80.53
2023-01-12T12:06:14.619Z,81.28
2023-01-12T12:08:56.463Z,80.65
2023-01-12T12:11:41.926Z,80.93
2023-01-12T12:14:29.050Z,80.89
2023-01-12T12:17:10.299Z,81.03
2023-01-12T12:19:54.109Z,80.92
2023-01-12T12:22:47.853Z,81.22
2023-01-12T12:25:27.136Z,81.83
2023-01-12T12:28:13.363Z,81.24
2023-01-12T12:31:17.398Z,81.47
2023-01-12T12:34:05.245Z,81.08
2023-01-12T12:36:48.493Z,81.21
2023-01-12T12:39:30.397Z,81.26
2023-01-12T12:42:33.297Z,80.51
2023-01-12T12:45:20.595Z,81.22
2023-01-12T12:47:59.822Z,81.14
2023-01-12T12:50:38.001Z,80.90
2023-01-12T12:53:21.508Z,80.79
2023-01-12T12:55:58.815Z,81.38
2023-01-12T12:58:43.676Z,81.09
2023-01-12T13:01:39.437Z,81.33
2023-01-12T13:04:16.340Z,81.25
2023-01-12T13:06:50.652Z,81.21
2023-01-12T13:09:41.112Z,81.15
2023-01-12T13:12:32.967Z,81.36
2023-01-12T13:15:22.006Z,81.34
2023-01-12T13:17:56.251Z,80.88
2023-01-12T13:20:51.512Z,81.12
2023-01-12T13:23:49.087Z,81.31
2023-01-12T13:26:47.493Z,81.10
2023-01-12T13:29:40.642Z,81.13
2023-01-12T13:32:37.319Z,80.88
2023-01-12T13:36:02.674Z,81.23
2023-01-12T13:38:53.784Z,81.00
2023-01-12T13:41:49.380Z,80.09
2023-01-12T13:44:29.706Z,80.65
2023-01-12T13:47:11.347Z,80.91
2023-01-12T13:49:49.437Z,80.45
2023-01-12T13:52:28.050Z,81.08
2023-01-12T13:55:01.873Z,81.04
2023-01-12T13:57:34.916Z,81.44
2023-01-12T14:00:10.985Z,81.00
2023-01-12T14:02:54.337Z,81.65
2023-01-12T14:05:42.346Z,81.56
2023-01-12T14:08:50.662Z,81.36
2023-01-12T14:11:49.759Z,81.55
2023-01-12T14:15:10.442Z,81.33
2023-01-12T14:17:52.633Z,81.09
2023-01-12T14:20:28.026Z,81.50
2023-01-12T14:23:15.391Z,80.84
2023-01-12T14:26:07.439Z,81.40
2023-01-12T14:28:42.883Z,80.91
2023-01-12T14:31:25.896Z,81.16
2023-01-12T14:34:04.999Z,81.58
2023-01-12T14:36:44.484Z,81.99
2023-01-12T14:39:23.486Z,81.78
2023-01-12T14:42:15.645Z,81.77
2023-01-12T14:45:09.551Z,81.67
2023-01-12T14:47:43.382Z,81.71
2023-01-12T14:50:24.137Z,81.38
2023-01-12T14:52:57.729Z,81.33
2023-01-12T14:55:44.284Z,81.64
2023-01-12T14:58:24.497Z,81.65
2023-01-12T15:01:03.465Z,81.43
2023-01-12T15:03:43.722Z,81.89
2023-01-12T15:06:18.861Z,81.26
2023-01-12T15:09:00.485Z,81.02
2023-01-12T15:14:30.801Z,81.54
2023-01-12T15:17:32.956Z,81.39
2023-01-12T15:20:33.087Z,81.16
2023-01-12T15:26:26.825Z,81.53
2023-01-12T15:29:00.820Z,80.96
2023-01-12T15:31:36.006Z,81.03
2023-01-12T15:34:12.714Z,80.94
2023-01-12T15:36:45.926Z,81.24
2023-01-12T15:39:19.192Z,81.21
2023-01-12T15:45:18.715Z,81.40
2023-01-12T15:47:52.134Z,81.08
2023-01-12T15:50:25.671Z,81.04
2023-01-12T15:53:03.147Z,81.91
2023-01-12T15:58:27.536Z,81.29
2023-01-12T16:01:06.797Z,81.82
2023-01-12T16:04:04.856Z,81.64
2023-01-12T16:07:05.345Z,81.70
2023-01-12T16:09:50.781Z,81.94
2023-01-12T16:12:24.662Z,81.46
2023-01-12T16:15:01.992Z,81.61
2023-01-12T16:17:45.426Z,81.93
2023-01-12T16:20:20.688Z,81.79
2023-01-12T16:22:55.002Z,81.53
2023-01-12T16:25:28.212Z,81.17
2023-01-12T16:28:02.079Z,80.89
2023-01-12T16:30:35.132Z,80.95
2023-01-12T16:33:09.267Z,81.46
2023-01-12T16:35:42.660Z,81.14
2023-01-12T16:38:16.733Z,81.09
2023-01-12T16:40:51.352Z,80.60
2023-01-12T16:43:25.111Z,80.68
2023-01-12T16:45:58.261Z,80.94
2023-01-12T16:48:34.673Z,80.85
2023-01-12T16:51:14.358Z,81.00
2023-01-12T16:53:48.881Z,81.33
2023-01-12T16:56:22.677Z,81.29
2023-01-12T16:58:56.046Z,80.75
2023-01-12T17:01:30.636Z,81.20
2023-01-12T17:04:07.363Z,81.54
2023-01-12T17:06:43.376Z,80.77
2023-01-12T17:09:17.020Z,81.16
2023-01-12T17:11:51.211Z,80.74
2023-01-12T17:14:24.578Z,80.34
2023-01-12T17:17:04.200Z,80.84
2023-01-12T17:19:42.645Z,80.54
2023-01-12T17:22:15.736Z,80.66
2023-01-12T17:24:49.036Z,80.58
2023-01-12T17:27:21.626Z,80.97
2023-01-12T17:29:54.685Z,81.38
2023-01-12T17:32:27.579Z,80.99
2023-01-12T17:35:04.423Z,81.31
2023-01-12T17:37:39.259Z,81.11
2023-01-12T17:40:12.795Z,80.88
2023-01-12T17:43:02.896Z,81.22
2023-01-12T17:45:42.545Z,80.95
2023-01-12T17:48:19.125Z,80.89
2023-01-12T17:50:53.860Z,80.66
2023-01-12T17:53:26.709Z,81.33
2023-01-12T17:56:03.878Z,80.62
2023-01-12T17:58:37.248Z,81.35
2023-01-12T18:01:14.326Z,81.61
2023-01-12T18:03:47.720Z,80.85
2023-01-12T18:06:27.513Z,80.55
2023-01-12T18:09:00.949Z,80.61
2023-01-12T18:11:37.375Z,80.26
2023-01-12T18:14:11.365Z,80.43
2023-01-12T18:16:44.396Z,80.49
2023-01-12T18:19:17.155Z,80.81
2023-01-12T18:21:51.758Z,81.04
2023-01-12T18:24:24.624Z,81.34
2023-01-12T18:26:58.019Z,80.57
2023-01-12T18:29:31.184Z,80.15
2023-01-12T18:32:04.675Z,80.38
2023-01-12T18:34:38.082Z,80.68
2023-01-12T18:37:13.786Z,80.53
2023-01-12T18:39:47.014Z,80.13
2023-01-12T18:42:37.598Z,81.31
2023-01-12T18:45:11.511Z,80.81
2023-01-12T18:48:02.059Z,80.59
2023-01-12T18:50:52.774Z,80.55
2023-01-12T18:53:30.762Z,80.47
2023-01-12T18:56:06.004Z,81.43
2023-01-12T18:58:40.038Z,81.16
2023-01-12T19:01:19.375Z,81.03
2023-01-12T19:03:53.469Z,81.19
2023-01-12T19:06:36.961Z,80.41
2023-01-12T19:09:30.736Z,80.49
2023-01-12T19:12:04.073Z,81.18
2023-01-12T19:14:54.451Z,80.83
2023-01-12T19:17:30.760Z,81.00
2023-01-12T19:20:09.111Z,80.54
2023-01-12T19:22:59.658Z,80.46
2023-01-12T19:25:51.510Z,80.22
2023-01-12T19:28:36.894Z,80.02
2023-01-12T19:31:30.405Z,80.35
2023-01-12T19:34:04.411Z,80.51
2023-01-12T19:36:42.930Z,80.11
2023-01-12T19:39:38.409Z,80.48
2023-01-12T19:42:42.916Z,80.67
2023-01-12T19:45:37.511Z,80.36
2023-01-12T19:48:32.874Z,80.21
2023-01-12T19:51:14.548Z,80.10
2023-01-12T19:53:56.922Z,80.63
2023-01-12T19:56:31.972Z,80.55
2023-01-12T19:59:14.977Z,80.74
2023-01-12T20:01:53.703Z,80.63
2023-01-12T20:04:34.651Z,80.23
2023-01-12T20:07:11.893Z,80.50
2023-01-12T20:09:55.913Z,80.41
2023-01-12T20:13:00.995Z,80.25
2023-01-12T20:22:09.585Z,80.50
2023-01-12T20:37:56.671Z,79.69
2023-01-12T20:40:30.161Z,80.08
2023-01-12T20:52:48.380Z,80.02
2023-01-12T20:55:22.837Z,80.20
2023-01-12T20:57:59.397Z,80.27
2023-01-12T21:00:32.407Z,79.94
2023-01-12T21:03:05.413Z,79.74
2023-01-12T21:05:42.130Z,79.43
2023-01-12T21:08:16.647Z,79.53
2023-01-12T21:10:55.450Z,79.54
2023-01-12T21:13:28.725Z,79.15
2023-01-12T21:16:13.181Z,79.53
2023-01-12T21:18:46.863Z,79.63
2023-01-12T21:21:19.838Z,79.30
2023-01-12T21:23:52.941Z,78.87
2023-01-12T21:26:27.212Z,79.05
2023-01-12T21:29:00.076Z,79.07
2023-01-12T21:31:32.869Z,78.84
2023-01-12T21:34:05.672Z,79.00
2023-01-12T21:36:38.484Z,79.46
2023-01-12T21:39:11.176Z,79.55
2023-01-12T21:42:02.971Z,79.33
2023-01-12T21:44:36.096Z,79.49
2023-01-12T21:47:08.921Z,78.83
2023-01-12T21:49:43.545Z,79.61
2023-01-12T21:52:16.470Z,79.01
2023-01-12T21:54:49.221Z,78.60
2023-01-12T21:57:23.672Z,78.62
2023-01-12T21:59:56.536Z,78.70
2023-01-12T22:02:31.229Z,78.49
2023-01-12T22:05:04.313Z,78.48
2023-01-12T22:07:37.195Z,79.00
2023-01-12T22:10:20.824Z,78.81
2023-01-12T22:12:57.412Z,77.92
2023-01-12T22:15:30.957Z,78.71
2023-01-12T22:18:04.352Z,78.70
2023-01-12T22:20:37.413Z,78.11
2023-01-12T22:23:12.053Z,78.72
2023-01-12T22:25:45.235Z,78.66
2023-01-12T22:28:19.621Z,78.77
2023-01-12T22:30:52.952Z,78.20
2023-01-12T22:33:26.221Z,78.98
2023-01-12T22:36:02.511Z,78.37
2023-01-12T22:38:35.597Z,78.83
2023-01-12T22:41:10.312Z,78.86
2023-01-12T22:43:44.745Z,79.21
2023-01-12T22:46:19.945Z,78.69
2023-01-12T22:48:55.361Z,78.77
2023-01-12T22:51:29.524Z,79.03
2023-01-12T22:54:02.464Z,78.39
2023-01-12T22:56:35.834Z,78.81
2023-01-12T22:59:10.616Z,78.47
2023-01-12T23:01:43.516Z,78.20
2023-01-12T23:04:16.329Z,78.36
2023-01-12T23:06:49.369Z,77.73
2023-01-12T23:09:22.320Z,77.66
2023-01-12T23:11:55.142Z,76.97
2023-01-12T23:14:29.465Z,78.14
2023-01-12T23:17:02.536Z,77.29
2023-01-12T23:19:35.301Z,78.42
2023-01-12T23:22:08.436Z,77.60
2023-01-12T23:24:41.244Z,77.67
2023-01-12T23:27:14.172Z,77.86
2023-01-12T23:29:48.975Z,76.96
2023-01-12T23:32:22.097Z,77.54
2023-01-12T23:34:55.064Z,78.04
2023-01-12T23:37:27.844Z,77.43
2023-01-12T23:40:00.780Z,77.88
2023-01-12T23:42:33.665Z,77.71
2023-01-12T23:45:09.189Z,77.36
2023-01-12T23:47:44.691Z,77.68
2023-01-12T23:50:18.328Z,78.31
2023-01-12T23:52:51.761Z,78.08
2023-01-12T23:55:27.288Z,77.96
2023-01-12T23:58:00.167Z,77.64
